Time;durP1;ratioP1;P1;durP2;ratioP2;P2;SDS_P1;SDS_P2;PMS_P1;PMS_P2;Temp;Humidity;BMP_temperature;BMP_pressure;BME280_temperature;BME280_humidity;BME280_pressure;Samples;Min_cycle;Max_cycle;Signal;HPM_P1;HPM_P2
2022/02/04 00:20:53;;;;;;;10.53;8.17;;;5.50;99.90;;;;;;4976679;28;20176;-54
2022/02/04 00:23:23;;;;;;;12.33;9.10;;;5.50;99.90;;;;;;4976525;28;20193;-56
2022/02/04 00:28:25;;;;;;;11.30;8.83;;;5.60;99.90;;;;;;4975966;28;20177;-52
2022/02/04 00:31:08;;;;;;;10.77;8.57;;;5.50;99.90;;;;;;4976064;28;20569;-52
2022/02/04 00:33:36;;;;;;;11.10;8.97;;;5.50;99.90;;;;;;4975927;28;20296;-54
2022/02/04 00:36:11;;;;;;;13.83;9.13;;;5.60;99.90;;;;;;4975816;28;20185;-56
2022/02/04 00:38:41;;;;;;;9.70;8.00;;;5.60;99.90;;;;;;4975653;28;20589;-52
2022/02/04 00:41:10;;;;;;;10.87;7.77;;;5.60;99.90;;;;;;4975899;28;20228;-55
2022/02/04 00:43:37;;;;;;;9.67;7.87;;;5.60;99.90;;;;;;4975678;28;20269;-57
2022/02/04 00:46:12;;;;;;;10.00;7.70;;;5.60;99.90;;;;;;4975655;28;20647;-51
2022/02/04 00:48:52;;;;;;;9.73;7.60;;;5.60;99.90;;;;;;4975613;28;20578;-56
2022/02/04 00:51:27;;;;;;;9.77;7.57;;;5.60;99.90;;;;;;4975763;28;20252;-53
2022/02/04 01:28:26;;;;;;;8.97;7.93;;;5.40;99.90;;;;;;4984287;28;20729;-53
2022/02/04 01:30:53;;;;;;;11.13;8.27;;;5.40;99.90;;;;;;4995403;28;20181;-53
2022/02/04 01:33:19;;;;;;;8.83;7.47;;;5.50;99.90;;;;;;4998507;28;20213;-52
2022/02/04 01:35:45;;;;;;;11.20;7.87;;;5.50;99.90;;;;;;4986686;28;20181;-55
2022/02/04 01:38:10;;;;;;;10.10;7.20;;;5.60;99.90;;;;;;4994088;28;20216;-55
2022/02/04 01:40:36;;;;;;;11.23;8.27;;;5.60;99.90;;;;;;4994314;28;20180;-55
2022/02/04 01:43:02;;;;;;;8.97;8.07;;;5.60;99.90;;;;;;4993990;28;20181;-55
2022/02/04 01:45:27;;;;;;;9.77;8.10;;;5.60;99.90;;;;;;4993991;28;20614;-56
2022/02/04 01:47:56;;;;;;;8.87;7.70;;;5.50;99.90;;;;;;4993792;28;20546;-54
2022/02/04 01:50:23;;;;;;;7.87;7.07;;;5.50;99.90;;;;;;4993904;28;20176;-56
2022/02/04 01:52:49;;;;;;;8.50;7.70;;;5.50;99.90;;;;;;4993694;28;20235;-54
2022/02/04 01:55:15;;;;;;;9.37;7.30;;;5.50;99.90;;;;;;4976408;28;20733;-56
2022/02/04 01:57:41;;;;;;;10.43;9.17;;;5.50;99.90;;;;;;4993731;28;20205;-54
2022/02/04 02:00:09;;;;;;;11.93;9.63;;;5.50;99.90;;;;;;4993580;28;20165;-54
2022/02/04 02:02:35;;;;;;;11.90;9.30;;;5.50;99.90;;;;;;4976300;28;20188;-56
2022/02/04 02:05:00;;;;;;;11.70;9.27;;;5.50;99.90;;;;;;4992726;28;20940;-55
2022/02/04 02:07:28;;;;;;;12.33;9.27;;;5.60;99.90;;;;;;4993511;28;20180;-55
2022/02/04 02:10:01;;;;;;;10.77;8.80;;;5.60;99.90;;;;;;4993456;28;20165;-54
2022/02/04 02:12:33;;;;;;;12.00;9.07;;;5.60;99.90;;;;;;4993750;28;20670;-58
2022/02/04 02:15:21;;;;;;;10.63;8.27;;;5.60;99.90;;;;;;4993287;28;20181;-58
2022/02/04 02:34:53;;;;;;;9.47;8.47;;;5.50;99.90;;;;;;4993313;28;20215;-58
2022/02/04 02:38:23;;;;;;;11.27;9.17;;;5.50;99.90;;;;;;4992954;28;20689;-52
2022/02/04 02:55:34;;;;;;;10.70;8.83;;;5.70;99.90;;;;;;4993006;28;20169;-57
2022/02/04 02:58:13;;;;;;;11.27;8.97;;;5.70;99.90;;;;;;4992799;28;20209;-59
2022/02/04 03:00:48;;;;;;;10.10;8.47;;;5.70;99.90;;;;;;4992855;28;20642;-55
2022/02/04 03:03:16;;;;;;;10.20;9.07;;;5.80;99.90;;;;;;4992590;28;20728;-55
2022/02/04 03:05:42;;;;;;;11.43;8.53;;;5.70;99.90;;;;;;4992613;28;20169;-56
2022/02/04 03:08:09;;;;;;;10.00;8.43;;;5.70;99.90;;;;;;4992525;28;20713;-55
2022/02/04 03:10:34;;;;;;;9.70;8.20;;;5.80;99.90;;;;;;4992629;28;20181;-58
2022/02/04 03:13:00;;;;;;;10.93;8.57;;;5.80;99.90;;;;;;4992600;28;20227;-55
2022/02/04 03:15:26;;;;;;;11.03;9.00;;;5.80;99.90;;;;;;4992632;28;20173;-55
2022/02/04 03:18:00;;;;;;;12.60;9.80;;;5.70;99.90;;;;;;4992586;28;20211;-54
2022/02/04 03:20:26;;;;;;;16.30;11.63;;;5.60;99.90;;;;;;4992810;28;20171;-56
2022/02/04 03:22:53;;;;;;;15.30;11.27;;;5.50;99.90;;;;;;4992426;28;20527;-56
2022/02/04 03:25:22;;;;;;;13.03;10.77;;;5.60;99.90;;;;;;4992459;28;20769;-55
2022/02/04 03:27:52;;;;;;;14.13;11.73;;;5.60;99.90;;;;;;4992478;28;20169;-56
2022/02/04 03:30:28;;;;;;;15.43;11.73;;;5.50;99.90;;;;;;4992309;28;20204;-56
2022/02/04 03:32:59;;;;;;;16.40;12.27;;;5.60;99.90;;;;;;4992377;28;20196;-55
2022/02/04 03:35:25;;;;;;;14.87;12.53;;;5.60;99.90;;;;;;4992380;28;20194;-56
2022/02/04 03:37:53;;;;;;;15.30;11.83;;;5.60;99.90;;;;;;4992592;28;20573;-56
2022/02/04 03:40:19;;;;;;;15.10;11.73;;;5.60;99.90;;;;;;4995132;28;20177;-57
2022/02/04 03:42:46;;;;;;;14.53;11.80;;;5.70;99.90;;;;;;4996359;28;20169;-55
2022/02/04 03:45:12;;;;;;;14.33;11.50;;;5.60;99.90;;;;;;4996233;28;20570;-53
2022/02/04 03:47:37;;;;;;;15.17;11.60;;;5.50;99.90;;;;;;4996360;28;20188;-53
2022/02/04 03:50:03;;;;;;;17.83;13.20;;;5.40;99.90;;;;;;4995997;28;20256;-53
2022/02/04 03:52:29;;;;;;;16.10;12.73;;;5.40;99.90;;;;;;4996249;28;20201;-52
2022/02/04 03:54:55;;;;;;;16.90;12.10;;;5.50;99.90;;;;;;4995939;28;20232;-53
2022/02/04 03:57:20;;;;;;;13.73;10.97;;;5.60;99.90;;;;;;4996038;28;20185;-52
2022/02/04 03:59:46;;;;;;;17.37;12.03;;;5.60;99.90;;;;;;4995834;28;20232;-52
2022/02/04 04:02:13;;;;;;;13.63;10.10;;;5.80;99.90;;;;;;4996060;28;20169;-55
2022/02/04 04:04:39;;;;;;;12.83;10.90;;;5.80;99.90;;;;;;4995786;28;20185;-52
2022/02/04 04:07:04;;;;;;;17.87;14.00;;;5.80;99.90;;;;;;4995978;28;20181;-54
2022/02/04 04:09:31;;;;;;;18.90;14.03;;;5.80;99.90;;;;;;4995944;28;20208;-55
2022/02/04 04:11:57;;;;;;;16.37;13.20;;;5.70;99.90;;;;;;4995906;28;20708;-58
2022/02/04 04:14:22;;;;;;;20.87;16.60;;;5.80;99.90;;;;;;4995715;28;20201;-55
2022/02/04 04:16:48;;;;;;;22.80;16.20;;;5.70;99.90;;;;;;4995607;28;20252;-54
2022/02/04 04:19:14;;;;;;;17.07;13.23;;;5.80;99.90;;;;;;4995506;28;20280;-54
2022/02/04 04:21:40;;;;;;;17.93;13.30;;;5.80;99.90;;;;;;4995679;28;20585;-55
2022/02/04 04:24:06;;;;;;;16.57;12.73;;;5.90;99.90;;;;;;4978142;28;20193;-54
2022/02/04 04:26:31;;;;;;;14.17;12.40;;;5.90;99.90;;;;;;4995320;28;20178;-56
2022/02/04 04:28:57;;;;;;;15.83;10.90;;;5.90;99.90;;;;;;4995436;28;20512;-54
2022/02/04 04:31:22;;;;;;;18.13;13.77;;;5.90;99.90;;;;;;4995464;28;20173;-56
2022/02/04 04:33:48;;;;;;;14.80;12.47;;;6.00;99.90;;;;;;4995405;28;20209;-54
2022/02/04 04:36:14;;;;;;;16.40;12.47;;;6.00;99.90;;;;;;4995264;28;20177;-56
2022/02/04 04:38:46;;;;;;;16.77;13.20;;;6.00;99.90;;;;;;4995175;28;20263;-55
2022/02/04 04:44:23;;;;;;;18.60;13.50;;;6.10;99.90;;;;;;4995612;28;20200;-53
2022/02/04 05:27:59;;;;;;;25.37;19.13;;;5.20;99.90;;;;;;4994606;28;20563;-53
2022/02/04 05:30:24;;;;;;;19.53;16.00;;;5.20;99.90;;;;;;4994449;28;20303;-55
2022/02/04 05:32:50;;;;;;;21.13;15.03;;;5.20;99.90;;;;;;4994268;28;20268;-52
2022/02/04 05:35:17;;;;;;;18.67;15.97;;;5.40;99.90;;;;;;4994084;28;20193;-55
2022/02/04 05:37:46;;;;;;;21.70;17.10;;;5.30;99.90;;;;;;4994314;28;20287;-55
2022/02/04 05:40:16;;;;;;;23.40;17.30;;;6.10;99.90;;;;;;4994073;28;20201;-57
2022/02/04 05:42:50;;;;;;;20.80;16.83;;;5.20;99.90;;;;;;4994172;28;20166;-58
2022/02/04 05:45:19;;;;;;;22.60;16.30;;;5.20;99.90;;;;;;4994050;28;20181;-57
2022/02/04 05:47:51;;;;;;;20.53;15.97;;;5.00;99.90;;;;;;4995332;28;20191;-55
2022/02/04 05:53:11;;;;;;;19.37;15.27;;;5.20;99.90;;;;;;4994132;28;20181;-56
2022/02/04 05:55:50;;;;;;;20.50;15.30;;;5.20;99.90;;;;;;4993156;28;20197;-56
2022/02/04 06:00:52;;;;;;;20.03;15.37;;;5.20;99.90;;;;;;4993740;28;20173;-57
2022/02/04 06:06:12;;;;;;;19.00;15.57;;;5.10;99.90;;;;;;4993914;28;20169;-55
2022/02/04 06:14:27;;;;;;;17.27;15.13;;;5.00;99.90;;;;;;4993855;28;20197;-57
2022/02/04 06:24:48;;;;;;;17.57;14.43;;;5.00;99.90;;;;;;4993372;28;20646;-53
2022/02/04 06:27:13;;;;;;;18.53;16.47;;;5.00;99.90;;;;;;4993137;28;20181;-56
2022/02/04 06:29:39;;;;;;;17.00;14.93;;;5.00;99.90;;;;;;4993180;28;20173;-59
2022/02/04 06:32:05;;;;;;;20.73;15.47;;;5.00;99.90;;;;;;4993254;28;20181;-53
2022/02/04 06:34:31;;;;;;;17.67;15.27;;;5.00;99.90;;;;;;4993020;28;20232;-55
2022/02/04 06:36:56;;;;;;;20.47;15.77;;;5.00;99.90;;;;;;4993217;28;20205;-54
2022/02/04 06:39:22;;;;;;;17.53;14.37;;;5.00;99.90;;;;;;4992912;28;20299;-56
2022/02/04 06:41:47;;;;;;;19.60;15.50;;;5.00;99.90;;;;;;4992973;28;20232;-54
2022/02/04 06:44:13;;;;;;;18.57;14.93;;;5.00;99.90;;;;;;4993049;28;20252;-52
2022/02/04 06:46:39;;;;;;;18.47;15.27;;;5.00;99.90;;;;;;4992889;28;20181;-54
2022/02/04 06:49:05;;;;;;;17.40;14.63;;;5.00;99.90;;;;;;4992825;28;20170;-55
2022/02/04 06:51:30;;;;;;;17.23;14.70;;;5.00;99.90;;;;;;4992943;28;20251;-56
2022/02/04 06:53:56;;;;;;;15.33;13.60;;;5.10;99.90;;;;;;4975410;28;20256;-54
2022/02/04 06:56:22;;;;;;;17.17;14.67;;;5.10;99.90;;;;;;4992679;28;20233;-55
2022/02/04 06:58:47;;;;;;;16.60;13.90;;;5.20;99.90;;;;;;4992529;28;20633;-54
2022/02/04 07:01:13;;;;;;;16.77;13.90;;;5.20;99.90;;;;;;4992913;28;20169;-57
2022/02/04 07:03:39;;;;;;;17.87;14.63;;;5.30;99.90;;;;;;4992628;28;20546;-54
2022/02/04 07:06:05;;;;;;;16.60;14.80;;;5.30;99.90;;;;;;4992622;28;20259;-57
2022/02/04 07:09:21;;;;;;;14.93;13.33;;;5.30;99.90;;;;;;4992369;28;20320;-53
2022/02/04 07:11:54;;;;;;;17.70;14.57;;;5.30;99.90;;;;;;4984667;28;20760;-52
2022/02/04 07:17:11;;;;;;;16.10;13.37;;;5.30;99.90;;;;;;4992433;28;20663;-52
2022/02/04 07:19:46;;;;;;;17.27;13.87;;;5.30;99.90;;;;;;4992115;28;20642;-55
2022/02/04 07:22:13;;;;;;;17.17;14.10;;;5.30;99.90;;;;;;4992406;28;20169;-56
2022/02/04 07:24:38;;;;;;;16.10;13.73;;;5.40;99.90;;;;;;4992145;28;20196;-55
2022/02/04 07:27:04;;;;;;;18.53;13.83;;;5.40;99.90;;;;;;4992344;28;20178;-56
2022/02/04 07:29:30;;;;;;;17.20;13.50;;;5.40;99.90;;;;;;4974583;28;20271;-55
2022/02/04 07:31:56;;;;;;;15.73;14.03;;;5.40;99.90;;;;;;4992230;28;20181;-56
2022/02/04 07:34:40;;;;;;;14.83;13.03;;;5.40;99.90;;;;;;4992067;28;20213;-57
2022/02/04 07:42:34;;;;;;;15.60;12.97;;;5.60;99.90;;;;;;4992460;28;20661;-58
2022/02/04 07:44:59;;;;;;;17.13;14.87;;;5.70;99.90;;;;;;4992092;28;20196;-54
2022/02/04 07:47:25;;;;;;;16.27;13.80;;;5.70;99.90;;;;;;4992347;28;20169;-54
2022/02/04 07:49:50;;;;;;;16.70;14.17;;;5.60;99.90;;;;;;4992116;28;20555;-54
2022/02/04 07:52:16;;;;;;;16.57;13.10;;;5.40;99.90;;;;;;4974906;28;20275;-54
2022/02/04 07:54:42;;;;;;;16.17;13.07;;;5.30;99.90;;;;;;4991958;28;20280;-56
2022/02/04 07:57:08;;;;;;;14.97;13.13;;;5.40;99.90;;;;;;4992358;28;20279;-54
2022/02/04 07:59:33;;;;;;;16.10;13.43;;;5.50;99.90;;;;;;4991994;28;20267;-56
2022/02/04 08:01:59;;;;;;;17.37;13.83;;;5.70;99.90;;;;;;4992136;28;20183;-59
2022/02/04 08:04:29;;;;;;;16.80;14.27;;;5.70;99.90;;;;;;4992132;28;20205;-59
2022/02/04 08:07:01;;;;;;;16.07;13.67;;;5.60;99.90;;;;;;4992017;28;20208;-52
2022/02/04 08:14:50;;;;;;;18.87;15.33;;;5.30;99.90;;;;;;4992149;28;20235;-56
2022/02/04 08:20:19;;;;;;;16.97;14.73;;;5.10;99.90;;;;;;4992205;28;20164;-52
2022/02/04 08:23:19;;;;;;;17.73;15.00;;;5.10;99.90;;;;;;4991999;28;20173;-55
2022/02/04 08:31:24;;;;;;;16.93;14.10;;;5.20;99.90;;;;;;4995849;28;20177;-52
2022/02/04 08:36:34;;;;;;;19.80;15.33;;;5.30;99.90;;;;;;4995156;28;20558;-57
2022/02/04 08:49:58;;;;;;;16.00;14.03;;;5.20;99.90;;;;;;4995182;28;20176;-56
2022/02/04 08:52:46;;;;;;;16.33;14.40;;;5.40;99.90;;;;;;4995079;28;20212;-57
2022/02/04 08:55:20;;;;;;;17.00;13.87;;;5.40;99.90;;;;;;4994853;28;20189;-56
2022/02/04 09:00:45;;;;;;;16.87;13.43;;;5.50;99.90;;;;;;4994802;28;20642;-56
2022/02/04 09:03:02;;;;;;;15.77;13.47;;;5.50;99.90;;;;;;4994754;28;20315;-52
2022/02/04 09:05:39;;;;;;;19.07;15.10;;;5.50;99.90;;;;;;4994908;28;20174;-55
2022/02/04 09:08:29;;;;;;;16.20;14.20;;;5.50;99.90;;;;;;4994928;28;20180;-56
2022/02/04 09:11:01;;;;;;;18.63;14.40;;;5.70;99.90;;;;;;4994956;28;20209;-55
2022/02/04 09:19:02;;;;;;;17.47;13.77;;;5.90;99.90;;;;;;4994581;28;20215;-54
2022/02/04 09:24:08;;;;;;;15.83;13.73;;;5.80;99.90;;;;;;4994527;28;20540;-56
2022/02/04 09:26:35;;;;;;;15.40;13.20;;;5.70;99.90;;;;;;4994322;28;20175;-52
2022/02/04 09:29:01;;;;;;;16.80;14.70;;;5.60;99.90;;;;;;4994277;28;20192;-58
2022/02/04 09:31:26;;;;;;;18.50;15.00;;;5.60;99.90;;;;;;4994407;28;20178;-53
2022/02/04 09:33:52;;;;;;;16.77;14.03;;;5.80;99.90;;;;;;4994306;28;20294;-53
2022/02/04 09:36:17;;;;;;;16.73;13.77;;;5.80;99.90;;;;;;4993647;28;20181;-53
2022/02/04 09:38:43;;;;;;;18.97;14.13;;;5.90;99.90;;;;;;4993993;28;20244;-53
2022/02/04 09:41:08;;;;;;;17.23;13.73;;;5.90;99.90;;;;;;4994271;28;20663;-51
2022/02/04 09:43:35;;;;;;;16.20;14.07;;;6.00;99.90;;;;;;4994141;28;20831;-53
2022/02/04 09:46:01;;;;;;;17.63;13.57;;;6.10;99.90;;;;;;4994057;28;20591;-52
2022/02/04 09:48:28;;;;;;;17.17;14.23;;;6.10;99.90;;;;;;4993863;28;20173;-56
2022/02/04 09:50:55;;;;;;;14.97;13.43;;;6.10;99.90;;;;;;4994117;28;20203;-52
2022/02/04 10:10:39;;;;;;;13.53;11.70;;;6.10;99.90;;;;;;4993539;28;20181;-55
2022/02/04 10:16:03;;;;;;;13.63;11.10;;;6.00;99.90;;;;;;4993600;28;20173;-53
2022/02/04 10:18:49;;;;;;;13.00;11.03;;;6.10;99.90;;;;;;4993239;28;20252;-53
2022/02/04 10:21:15;;;;;;;13.27;10.63;;;6.00;99.90;;;;;;4993482;28;20174;-52
2022/02/04 10:23:47;;;;;;;12.80;11.10;;;6.00;99.90;;;;;;4993432;28;20255;-51
2022/02/04 10:26:14;;;;;;;11.73;10.20;;;5.90;99.90;;;;;;4993215;28;20639;-51
2022/02/04 10:28:41;;;;;;;11.53;10.30;;;5.90;99.90;;;;;;4993169;28;20255;-51
2022/02/04 10:31:08;;;;;;;13.23;10.27;;;5.90;99.90;;;;;;4993218;28;20184;-52
2022/02/04 10:33:58;;;;;;;10.83;9.30;;;6.00;99.90;;;;;;4993196;28;20693;-52
2022/02/04 10:36:43;;;;;;;11.03;9.83;;;6.10;99.90;;;;;;4993021;28;20213;-56
2022/02/04 10:39:35;;;;;;;9.97;8.93;;;6.30;99.90;;;;;;4992973;28;20201;-53
2022/02/04 10:42:05;;;;;;;9.80;8.67;;;6.60;99.90;;;;;;4993307;28;20181;-56
2022/02/04 10:44:41;;;;;;;11.17;8.70;;;6.80;99.90;;;;;;4992892;28;20196;-53
2022/02/04 10:47:07;;;;;;;10.10;8.53;;;6.90;99.90;;;;;;4992695;28;20185;-55
2022/02/04 10:49:58;;;;;;;11.17;8.77;;;6.80;99.90;;;;;;4992280;28;20177;-52
2022/02/04 10:55:40;;;;;;;11.37;8.73;;;6.60;99.90;;;;;;4993138;28;20708;-56
2022/02/04 10:58:24;;;;;;;9.53;8.40;;;6.60;99.90;;;;;;4992500;28;20211;-56
2022/02/04 11:03:28;;;;;;;11.40;9.07;;;6.60;99.90;;;;;;4992877;28;20224;-54
2022/02/04 11:06:07;;;;;;;9.80;8.63;;;6.60;99.90;;;;;;4992599;28;20170;-52
2022/02/04 11:34:37;;;;;;;11.47;9.20;;;7.10;99.90;;;;;;4992487;28;20212;-54
2022/02/04 11:54:30;;;;;;;10.03;8.87;;;7.20;99.90;;;;;;4913170;29;20204;-56
2022/02/04 11:56:56;;;;;;;9.87;8.43;;;7.30;99.90;;;;;;4913544;29;20732;-55
2022/02/04 11:59:40;;;;;;;10.30;8.73;;;7.10;99.90;;;;;;4914417;29;20207;-55
2022/02/04 12:02:26;;;;;;;9.30;8.10;;;7.10;99.90;;;;;;4917474;29;20184;-56
2022/02/04 12:05:15;;;;;;;9.87;7.70;;;7.10;99.90;;;;;;4916863;29;20223;-55
2022/02/04 12:08:10;;;;;;;9.87;8.80;;;7.00;99.90;;;;;;4918346;29;20588;-54
2022/02/04 12:10:56;;;;;;;9.03;8.13;;;7.10;99.90;;;;;;4916817;29;20203;-54
2022/02/04 12:13:24;;;;;;;9.43;8.43;;;7.10;99.90;;;;;;4916771;29;20755;-56
2022/02/04 12:16:05;;;;;;;9.20;7.90;;;7.10;99.90;;;;;;4916479;29;20596;-57
2022/02/04 12:18:39;;;;;;;9.83;8.83;;;7.20;99.90;;;;;;4912082;29;20211;-53
2022/02/04 12:21:05;;;;;;;10.07;9.07;;;7.20;99.90;;;;;;4916392;29;20263;-56
2022/02/04 12:23:41;;;;;;;9.70;8.30;;;7.20;99.90;;;;;;4916239;29;20819;-57
2022/02/04 12:26:09;;;;;;;10.07;8.97;;;7.30;99.90;;;;;;4915941;29;20271;-51
2022/02/04 12:29:05;;;;;;;10.33;9.23;;;7.30;99.90;;;;;;4988630;28;20185;-54
2022/02/04 12:31:42;;;;;;;9.57;8.57;;;7.40;99.90;;;;;;4995427;28;20665;-54
2022/02/04 12:34:16;;;;;;;12.13;9.00;;;7.50;99.90;;;;;;4995274;28;20296;-53
2022/02/04 12:36:44;;;;;;;9.83;8.83;;;7.60;99.90;;;;;;4995143;28;20252;-57
2022/02/04 12:39:11;;;;;;;9.97;8.83;;;7.60;99.90;;;;;;4995006;28;20262;-54
2022/02/04 12:41:58;;;;;;;10.23;9.23;;;7.50;99.90;;;;;;4995299;28;20173;-52
2022/02/04 12:44:29;;;;;;;9.90;8.90;;;7.60;99.90;;;;;;4995016;28;20200;-55
2022/02/04 12:46:56;;;;;;;11.00;9.83;;;7.60;99.90;;;;;;4995215;28;20165;-57
2022/02/04 12:49:25;;;;;;;9.20;8.30;;;7.70;99.90;;;;;;4994859;28;20181;-55
2022/02/04 12:54:34;;;;;;;10.33;8.80;;;7.50;99.90;;;;;;4994952;28;20228;-57
2022/02/04 12:57:27;;;;;;;10.23;8.77;;;7.40;99.90;;;;;;4995438;28;20676;-55
2022/02/04 13:07:58;;;;;;;10.30;9.07;;;7.50;99.90;;;;;;4994837;28;20179;-52
2022/02/04 13:10:28;;;;;;;10.13;9.13;;;7.60;99.90;;;;;;4993578;28;20184;-54
2022/02/04 13:12:59;;;;;;;9.77;8.77;;;7.60;99.90;;;;;;4976853;28;20292;-53
2022/02/04 13:15:29;;;;;;;10.47;9.10;;;7.80;99.90;;;;;;4994467;28;20165;-56
2022/02/04 13:17:57;;;;;;;10.33;8.97;;;7.80;99.90;;;;;;4994565;28;20153;-55
2022/02/04 13:20:23;;;;;;;9.63;8.63;;;7.80;99.90;;;;;;4993695;28;20543;-56
2022/02/04 13:22:54;;;;;;;11.90;9.00;;;7.90;99.90;;;;;;4994189;28;20208;-53
2022/02/04 13:25:22;;;;;;;9.50;8.50;;;7.90;99.90;;;;;;4994591;28;20707;-54
2022/02/04 13:28:02;;;;;;;9.57;8.03;;;8.00;99.90;;;;;;4994688;28;20539;-55
2022/02/04 13:30:36;;;;;;;9.50;8.50;;;8.80;99.90;;;;;;4994513;28;20223;-53
2022/02/04 13:33:13;;;;;;;9.77;8.77;;;8.30;99.90;;;;;;4994222;28;20189;-56
2022/02/04 13:35:41;;;;;;;9.63;8.63;;;8.40;99.90;;;;;;4994324;28;20216;-57
2022/02/04 13:41:21;;;;;;;11.33;8.97;;;8.60;99.90;;;;;;4915172;29;20222;-57
2022/02/04 13:46:22;;;;;;;9.23;8.23;;;8.60;99.90;;;;;;4914994;29;20543;-53
2022/02/04 13:49:06;;;;;;;9.27;8.30;;;8.60;99.90;;;;;;4914852;29;20175;-56
2022/02/04 13:52:05;;;;;;;8.97;8.03;;;8.50;99.90;;;;;;4915149;29;20188;-55
2022/02/04 13:54:42;;;;;;;9.80;7.90;;;8.30;99.90;;;;;;4914513;29;20216;-56
2022/02/04 14:00:14;;;;;;;9.17;8.23;;;8.20;99.90;;;;;;4914563;29;20708;-54
2022/02/04 14:02:44;;;;;;;8.83;7.80;;;8.30;99.90;;;;;;4914927;29;20179;-54
2022/02/04 14:05:11;;;;;;;8.27;7.40;;;8.40;99.90;;;;;;4914499;29;20212;-56
2022/02/04 14:07:54;;;;;;;9.20;7.93;;;8.50;99.90;;;;;;4914738;29;20168;-57
2022/02/04 14:10:29;;;;;;;8.93;8.03;;;8.50;99.90;;;;;;4914633;29;20191;-56
2022/02/04 14:13:02;;;;;;;9.63;7.77;;;8.60;99.90;;;;;;4914640;29;20188;-57
2022/02/04 14:15:30;;;;;;;9.30;8.30;;;8.70;99.90;;;;;;4914384;29;20537;-56
2022/02/04 14:18:07;;;;;;;9.13;8.17;;;8.70;99.90;;;;;;4945134;28;20203;-56
2022/02/04 14:20:36;;;;;;;8.90;8.00;;;8.80;99.90;;;;;;4993503;28;20647;-56
2022/02/04 14:23:03;;;;;;;9.17;8.17;;;8.90;99.90;;;;;;4993304;28;20199;-55
2022/02/04 14:25:28;;;;;;;9.20;8.30;;;8.90;99.90;;;;;;4975822;28;20180;-58
2022/02/04 14:27:58;;;;;;;8.77;7.50;;;8.80;99.90;;;;;;4993318;28;20169;-55
2022/02/04 14:30:29;;;;;;;9.20;8.20;;;8.60;99.90;;;;;;4993157;28;20169;-57
2022/02/04 14:33:06;;;;;;;8.53;7.73;;;8.50;99.90;;;;;;4992156;28;20181;-58
2022/02/04 14:35:44;;;;;;;8.40;7.13;;;8.30;99.90;;;;;;4993216;28;20193;-56
2022/02/04 14:49:23;;;;;;;8.60;6.87;;;7.70;99.90;;;;;;4992920;28;20177;-56
2022/02/04 15:02:41;;;;;;;8.73;7.20;;;8.00;99.90;;;;;;5005943;28;20550;-56
2022/02/04 15:05:11;;;;;;;8.73;7.27;;;8.00;99.90;;;;;;4986941;28;20204;-51
2022/02/04 15:07:39;;;;;;;8.33;7.40;;;7.90;99.90;;;;;;4984033;28;20706;-55
2022/02/04 15:10:08;;;;;;;8.33;7.43;;;7.90;99.90;;;;;;4986067;28;20184;-51
2022/02/04 15:12:33;;;;;;;8.47;7.40;;;8.00;99.90;;;;;;4977063;28;20180;-52
2022/02/04 15:14:59;;;;;;;8.33;7.37;;;7.90;99.90;;;;;;4976766;28;20197;-52
2022/02/04 15:17:25;;;;;;;8.53;7.43;;;7.90;99.90;;;;;;4992391;28;20252;-52
2022/02/04 15:19:50;;;;;;;8.17;7.23;;;7.80;99.90;;;;;;4990640;28;20752;-56
2022/02/04 15:22:22;;;;;;;9.20;7.03;;;7.80;99.90;;;;;;4992596;28;20670;-52
2022/02/04 15:24:52;;;;;;;8.53;7.53;;;8.00;99.90;;;;;;4992338;28;20193;-51
2022/02/04 15:27:18;;;;;;;7.97;6.80;;;8.00;99.90;;;;;;4992534;28;20205;-56
2022/02/04 15:29:46;;;;;;;7.30;6.60;;;8.10;99.90;;;;;;4992354;28;20580;-53
2022/02/04 15:32:12;;;;;;;8.30;6.97;;;8.20;99.90;;;;;;4992458;28;20180;-54
2022/02/04 15:34:37;;;;;;;9.30;7.33;;;8.30;99.90;;;;;;4991739;28;20749;-54
2022/02/04 15:37:03;;;;;;;7.83;7.03;;;8.40;99.90;;;;;;4992339;28;20220;-52
2022/02/04 15:39:30;;;;;;;8.00;7.20;;;8.50;99.90;;;;;;4991793;28;20197;-53
2022/02/04 15:41:58;;;;;;;7.90;6.93;;;8.70;99.90;;;;;;4992244;28;20661;-53
2022/02/04 15:44:37;;;;;;;8.40;7.43;;;8.80;99.90;;;;;;4991867;28;20189;-51
2022/02/04 15:52:39;;;;;;;9.27;7.07;;;8.90;99.90;;;;;;4992166;28;20744;-53
2022/02/04 15:57:45;;;;;;;7.70;6.83;;;9.00;99.90;;;;;;4992270;28;20645;-53
2022/02/04 16:05:20;;;;;;;11.23;6.83;;;9.20;99.90;;;;;;4992112;28;20677;-52
2022/02/04 16:07:46;;;;;;;7.83;6.53;;;9.20;99.90;;;;;;4992019;28;20201;-55
2022/02/04 16:12:52;;;;;;;7.70;6.53;;;9.30;99.90;;;;;;4991942;28;20209;-51
2022/02/04 16:15:52;;;;;;;7.80;6.57;;;9.30;99.90;;;;;;4992018;28;20207;-53
2022/02/04 16:18:15;;;;;;;8.20;7.00;;;9.40;99.90;;;;;;4991407;28;20217;-54
2022/02/04 16:23:32;;;;;;;7.23;6.50;;;9.30;99.90;;;;;;4986881;28;20193;-51
2022/02/04 16:28:42;;;;;;;7.23;6.33;;;9.30;99.90;;;;;;4986049;28;20228;-59
2022/02/04 16:31:11;;;;;;;8.20;7.30;;;9.20;99.90;;;;;;4980329;28;20197;-57
2022/02/04 16:33:36;;;;;;;8.50;7.60;;;9.20;99.90;;;;;;4979694;28;20272;-51
2022/02/04 16:36:14;;;;;;;8.90;6.97;;;9.10;99.90;;;;;;4994545;28;20188;-54
2022/02/04 16:38:40;;;;;;;9.50;8.43;;;9.00;99.90;;;;;;5003130;28;20204;-54
2022/02/04 16:41:10;;;;;;;9.10;8.03;;;9.00;99.90;;;;;;5002450;28;20177;-57
2022/02/04 16:43:36;;;;;;;9.93;7.70;;;8.90;99.90;;;;;;4995428;28;20566;-54
2022/02/04 16:46:06;;;;;;;7.87;7.07;;;8.90;99.90;;;;;;4980860;28;20181;-53
2022/02/04 16:48:33;;;;;;;7.53;6.77;;;8.70;99.90;;;;;;4985520;28;20185;-52
2022/02/04 16:50:59;;;;;;;8.57;7.40;;;8.70;99.90;;;;;;4985417;28;20273;-52
2022/02/04 16:53:27;;;;;;;9.20;8.17;;;8.70;99.90;;;;;;4989355;28;20252;-54
2022/02/04 16:55:54;;;;;;;8.07;6.73;;;8.70;99.90;;;;;;4995792;28;20181;-54
2022/02/04 16:58:20;;;;;;;9.80;8.50;;;8.70;99.90;;;;;;4996943;28;20211;-56
2022/02/04 17:00:45;;;;;;;8.07;7.23;;;8.60;99.90;;;;;;4996477;28;20189;-55
2022/02/04 17:03:11;;;;;;;9.23;7.73;;;8.50;99.90;;;;;;4997597;28;21587;-56
2022/02/04 17:05:51;;;;;;;9.63;8.20;;;8.40;99.90;;;;;;4985882;28;20238;-54
2022/02/04 17:08:31;;;;;;;9.50;8.50;;;8.20;99.90;;;;;;5009975;28;20184;-56
2022/02/04 17:10:57;;;;;;;8.50;7.60;;;8.20;99.90;;;;;;4978760;28;20251;-55
2022/02/04 17:13:23;;;;;;;8.07;7.23;;;8.20;99.90;;;;;;5005250;28;20254;-56
2022/02/04 17:15:50;;;;;;;8.67;7.63;;;8.10;99.90;;;;;;4991375;28;20178;-56
2022/02/04 17:18:16;;;;;;;9.93;8.07;;;8.00;99.90;;;;;;4973703;28;20198;-54
2022/02/04 17:20:42;;;;;;;8.80;7.70;;;8.00;99.90;;;;;;4974222;28;20184;-56
2022/02/04 17:23:11;;;;;;;8.93;7.37;;;8.00;99.90;;;;;;4974030;28;20248;-56
2022/02/04 17:25:38;;;;;;;9.30;8.23;;;8.00;99.90;;;;;;4974978;28;20178;-56
2022/02/04 17:28:04;;;;;;;8.50;7.40;;;8.10;99.90;;;;;;4974839;28;20712;-54
2022/02/04 17:30:30;;;;;;;9.87;8.00;;;8.10;99.90;;;;;;4993165;28;20203;-55
2022/02/04 17:32:56;;;;;;;10.17;8.17;;;8.00;99.90;;;;;;4986270;28;20273;-55
2022/02/04 17:35:23;;;;;;;8.73;7.83;;;8.00;99.90;;;;;;4973846;28;20176;-57
2022/02/04 17:37:51;;;;;;;8.83;7.93;;;8.00;99.90;;;;;;4974435;28;20702;-52
2022/02/04 17:40:18;;;;;;;9.10;7.77;;;8.00;99.90;;;;;;4974545;28;20201;-57
2022/02/04 17:42:46;;;;;;;9.50;8.50;;;8.30;99.90;;;;;;4974764;28;20228;-57
2022/02/04 17:45:17;;;;;;;9.50;8.50;;;8.10;99.90;;;;;;4974620;28;20200;-57
2022/02/04 17:47:50;;;;;;;11.27;9.70;;;8.00;99.90;;;;;;4974875;28;20178;-57
2022/02/04 17:50:22;;;;;;;11.47;8.77;;;8.10;99.90;;;;;;4974571;28;20170;-56
2022/02/04 17:52:54;;;;;;;10.17;8.73;;;8.10;99.90;;;;;;4974768;28;20225;-54
2022/02/04 17:55:28;;;;;;;9.20;8.23;;;8.00;99.90;;;;;;4974619;28;20685;-56
2022/02/04 17:58:11;;;;;;;9.87;8.43;;;8.00;99.90;;;;;;4974019;28;20585;-52
2022/02/04 18:08:21;;;;;;;12.43;9.67;;;7.70;99.90;;;;;;4974251;28;20199;-58
2022/02/04 18:10:46;;;;;;;10.60;9.30;;;7.60;99.90;;;;;;4974296;28;20233;-55
2022/02/04 18:13:12;;;;;;;10.47;9.37;;;7.60;99.90;;;;;;4956882;28;20202;-54
2022/02/04 18:15:42;;;;;;;10.23;9.17;;;7.50;99.90;;;;;;4973958;28;20265;-55
2022/02/04 18:18:08;;;;;;;9.30;8.30;;;7.40;99.90;;;;;;4973926;28;20170;-54
2022/02/04 18:20:34;;;;;;;9.53;8.20;;;7.40;99.90;;;;;;4974525;28;20640;-57
2022/02/04 18:23:00;;;;;;;11.17;9.27;;;7.40;99.90;;;;;;4974257;28;20170;-54
2022/02/04 18:25:26;;;;;;;10.43;9.33;;;7.30;99.90;;;;;;4974049;28;20177;-55
2022/02/04 18:27:51;;;;;;;10.27;8.90;;;7.20;99.90;;;;;;4974025;28;20181;-58
2022/02/04 18:30:18;;;;;;;11.27;9.47;;;7.20;99.90;;;;;;4973661;28;20244;-55
2022/02/04 18:32:48;;;;;;;10.33;9.20;;;7.30;99.90;;;;;;4973871;28;20793;-52
2022/02/04 18:35:18;;;;;;;10.37;8.93;;;7.40;99.90;;;;;;4973753;28;20189;-54
2022/02/04 18:37:52;;;;;;;13.10;9.73;;;7.50;99.90;;;;;;4956487;28;20639;-54
2022/02/04 18:45:43;;;;;;;10.67;9.07;;;7.80;99.90;;;;;;4973673;28;20269;-56
2022/02/04 18:48:15;;;;;;;10.53;9.23;;;7.80;99.90;;;;;;4973778;28;20173;-57
2022/02/04 18:53:39;;;;;;;11.33;9.83;;;7.70;99.90;;;;;;4894909;29;20216;-56